JAL583 RJTT-RJCH
Flight info
| Callsign | JAL583 |
|---|---|
| Flight time | N/A |
| Altitude | 39000 |
| Route | ROVER2A BRUCE DCT AGRIS Y11 YTE Y113 TAXIR YAKEI |
| Aircraft | B789/H-SDE1E2E3FGHIJ2J3J4J5M1RWXY/LB1D1 |
Departure
| Time | 2026-02-17 14:14 |
|---|---|
| Airport | Tokyo Haneda International Airport (RJTT) |
Arrival
| Time | N/A |
|---|---|
| Airport | Hakodate Airport (RJCH) |
| Time | Latitude | Longitude | Altitude | Speed | Heading |
|---|---|---|---|---|---|
| 2026-02-17 13:53 | 35.54757 | 139.78329 | 74 ft | 0 kts | 22° |
| 2026-02-17 14:01 | 35.54755 | 139.78328 | 74 ft | 1 kts | 22° |
| 2026-02-17 14:02 | 35.54738 | 139.78320 | 66 ft | 3 kts | 23° |
| 2026-02-17 14:02 | 35.54719 | 139.78310 | 64 ft | 3 kts | 24° |
| 2026-02-17 14:02 | 35.54701 | 139.78299 | 63 ft | 3 kts | 26° |
| 2026-02-17 14:03 | 35.54666 | 139.78275 | 63 ft | 3 kts | 40° |
| 2026-02-17 14:03 | 35.54653 | 139.78258 | 63 ft | 3 kts | 75° |
| 2026-02-17 14:03 | 35.54651 | 139.78247 | 63 ft | 1 kts | 141° |
| 2026-02-17 14:03 | 35.54660 | 139.78239 | 63 ft | 3 kts | 146° |
| 2026-02-17 14:04 | 35.54677 | 139.78225 | 63 ft | 3 kts | 149° |
| 2026-02-17 14:04 | 35.54695 | 139.78213 | 63 ft | 3 kts | 150° |
| 2026-02-17 14:04 | 35.54707 | 139.78204 | 63 ft | 1 kts | 148° |
| 2026-02-17 14:06 | 35.54705 | 139.78205 | 63 ft | 2 kts | 148° |
| 2026-02-17 14:07 | 35.54587 | 139.78292 | 63 ft | 16 kts | 151° |
| 2026-02-17 14:07 | 35.54483 | 139.78364 | 63 ft | 18 kts | 150° |
| 2026-02-17 14:07 | 35.54371 | 139.78441 | 63 ft | 19 kts | 150° |
| 2026-02-17 14:07 | 35.54279 | 139.78507 | 68 ft | 20 kts | 149° |
| 2026-02-17 14:08 | 35.54158 | 139.78594 | 63 ft | 20 kts | 149° |
| 2026-02-17 14:08 | 35.54034 | 139.78685 | 69 ft | 21 kts | 149° |
| 2026-02-17 14:08 | 35.53909 | 139.78773 | 65 ft | 21 kts | 150° |
| 2026-02-17 14:08 | 35.53786 | 139.78859 | 63 ft | 20 kts | 150° |
| 2026-02-17 14:09 | 35.53665 | 139.78944 | 67 ft | 20 kts | 150° |
| 2026-02-17 14:09 | 35.53547 | 139.79029 | 63 ft | 19 kts | 149° |
| 2026-02-17 14:09 | 35.53463 | 139.79091 | 63 ft | 19 kts | 149° |
| 2026-02-17 14:09 | 35.53375 | 139.79195 | 68 ft | 16 kts | 109° |
| 2026-02-17 14:10 | 35.53399 | 139.79310 | 65 ft | 14 kts | 60° |
| 2026-02-17 14:10 | 35.53447 | 139.79411 | 70 ft | 14 kts | 60° |
| 2026-02-17 14:10 | 35.53497 | 139.79512 | 66 ft | 14 kts | 58° |
| 2026-02-17 14:11 | 35.53599 | 139.79721 | 63 ft | 15 kts | 59° |
| 2026-02-17 14:11 | 35.53652 | 139.79831 | 66 ft | 15 kts | 60° |
| 2026-02-17 14:11 | 35.53705 | 139.79945 | 63 ft | 16 kts | 60° |
| 2026-02-17 14:11 | 35.53760 | 139.80064 | 67 ft | 16 kts | 60° |
| 2026-02-17 14:12 | 35.53824 | 139.80182 | 66 ft | 17 kts | 55° |
| 2026-02-17 14:12 | 35.53888 | 139.80305 | 63 ft | 17 kts | 58° |
| 2026-02-17 14:12 | 35.53953 | 139.80433 | 71 ft | 18 kts | 57° |
| 2026-02-17 14:12 | 35.54035 | 139.80470 | 67 ft | 11 kts | 332° |
| 2026-02-17 14:13 | 35.54054 | 139.80455 | 69 ft | 1 kts | 328° |
| 2026-02-17 14:13 | 35.54076 | 139.80438 | 61 ft | 10 kts | 328° |
| 2026-02-17 14:13 | 35.54305 | 139.80270 | 69 ft | 76 kts | 330° |
| 2026-02-17 14:13 | 35.54997 | 139.79787 | 86 ft | 151 kts | 331° |
| 2026-02-17 14:14 | 35.55970 | 139.79145 | 858 ft | 157 kts | 338° |
| 2026-02-17 14:14 | 35.57041 | 139.78729 | 1874 ft | 168 kts | 6° |
| 2026-02-17 14:14 | 35.57959 | 139.79430 | 2803 ft | 159 kts | 62° |
| 2026-02-17 14:15 | 35.59177 | 139.81820 | 4119 ft | 186 kts | 51° |
| 2026-02-17 14:15 | 35.60039 | 139.83151 | 4704 ft | 209 kts | 57° |
| 2026-02-17 14:15 | 35.60705 | 139.84850 | 5239 ft | 233 kts | 77° |
| 2026-02-17 14:15 | 35.60783 | 139.86894 | 5881 ft | 247 kts | 96° |
| 2026-02-17 14:16 | 35.60869 | 139.88977 | 7152 ft | 241 kts | 89° |
| 2026-02-17 14:16 | 35.60950 | 139.91118 | 7853 ft | 263 kts | 92° |
| 2026-02-17 14:16 | 35.61090 | 139.93485 | 8349 ft | 292 kts | 77° |
| 2026-02-17 14:16 | 35.62150 | 139.95584 | 9549 ft | 289 kts | 38° |
| 2026-02-17 14:17 | 35.63942 | 139.96768 | 10292 ft | 299 kts | 6° |
| 2026-02-17 14:17 | 35.66037 | 139.96991 | 10978 ft | 307 kts | 354° |
| 2026-02-17 14:17 | 35.68185 | 139.96896 | 11904 ft | 312 kts | 346° |
| 2026-02-17 14:17 | 35.70440 | 139.96588 | 12134 ft | 345 kts | 350° |
| 2026-02-17 14:18 | 35.72926 | 139.96567 | 12747 ft | 360 kts | 350° |
| 2026-02-17 14:18 | 35.75311 | 139.95940 | 13864 ft | 347 kts | 333° |
| 2026-02-17 14:18 | 35.77622 | 139.94990 | 14703 ft | 354 kts | 333° |
| 2026-02-17 14:19 | 35.82264 | 139.92786 | 15011 ft | 354 kts | 330° |
| 2026-02-17 14:19 | 35.84586 | 139.91696 | 15538 ft | 358 kts | 334° |
| 2026-02-17 14:19 | 35.87078 | 139.91153 | 16548 ft | 372 kts | 348° |
| 2026-02-17 14:19 | 35.89719 | 139.91303 | 17364 ft | 386 kts | 355° |
| 2026-02-17 14:20 | 35.92413 | 139.91560 | 18212 ft | 390 kts | 355° |
| 2026-02-17 14:20 | 35.95148 | 139.91885 | 18955 ft | 396 kts | 356° |
| 2026-02-17 14:20 | 35.97867 | 139.92240 | 19673 ft | 400 kts | 356° |
| 2026-02-17 14:20 | 36.00587 | 139.92570 | 20376 ft | 402 kts | 355° |
| 2026-02-17 14:21 | 36.03391 | 139.92892 | 21082 ft | 406 kts | 354° |
| 2026-02-17 14:21 | 36.06218 | 139.93225 | 21776 ft | 410 kts | 354° |
| 2026-02-17 14:21 | 36.09075 | 139.93572 | 22424 ft | 413 kts | 354° |
| 2026-02-17 14:21 | 36.11949 | 139.93919 | 23065 ft | 417 kts | 354° |
| 2026-02-17 14:22 | 36.14845 | 139.94264 | 23703 ft | 420 kts | 354° |
| 2026-02-17 14:22 | 36.20700 | 139.94865 | 24675 ft | 417 kts | 347° |
| 2026-02-17 14:23 | 36.26486 | 139.94696 | 25626 ft | 421 kts | 347° |
| 2026-02-17 14:23 | 36.29428 | 139.94623 | 26098 ft | 423 kts | 346° |
| 2026-02-17 14:23 | 36.32388 | 139.94532 | 26581 ft | 426 kts | 346° |
| 2026-02-17 14:23 | 36.35363 | 139.94440 | 27026 ft | 429 kts | 346° |
| 2026-02-17 14:24 | 36.38353 | 139.94356 | 27475 ft | 432 kts | 346° |
| 2026-02-17 14:24 | 36.41261 | 139.94276 | 27895 ft | 435 kts | 346° |
| 2026-02-17 14:24 | 36.44324 | 139.94344 | 28279 ft | 443 kts | 349° |
| 2026-02-17 14:24 | 36.47294 | 139.94476 | 28693 ft | 445 kts | 349° |
| 2026-02-17 14:25 | 36.50400 | 139.94608 | 29098 ft | 448 kts | 349° |
| 2026-02-17 14:25 | 36.53530 | 139.94738 | 29499 ft | 451 kts | 348° |
| 2026-02-17 14:25 | 36.56689 | 139.94873 | 29877 ft | 454 kts | 348° |
| 2026-02-17 14:25 | 36.59851 | 139.95010 | 30249 ft | 457 kts | 348° |
| 2026-02-17 14:26 | 36.63044 | 139.95147 | 30535 ft | 460 kts | 348° |
| 2026-02-17 14:26 | 36.66250 | 139.95284 | 30828 ft | 463 kts | 349° |
| 2026-02-17 14:26 | 36.69482 | 139.95422 | 31111 ft | 466 kts | 349° |
| 2026-02-17 14:27 | 36.76019 | 139.95704 | 31668 ft | 473 kts | 349° |
| 2026-02-17 14:27 | 36.79324 | 139.95846 | 31947 ft | 476 kts | 349° |
| 2026-02-17 14:27 | 36.82634 | 139.95989 | 32219 ft | 479 kts | 349° |
| 2026-02-17 14:27 | 36.85985 | 139.96138 | 32497 ft | 483 kts | 351° |
| 2026-02-17 14:28 | 36.89382 | 139.96674 | 32727 ft | 501 kts | 360° |
| 2026-02-17 14:28 | 36.92814 | 139.97547 | 32961 ft | 505 kts | 360° |
| 2026-02-17 14:28 | 36.96275 | 139.98439 | 33207 ft | 508 kts | 360° |
| 2026-02-17 14:28 | 36.99749 | 139.99338 | 33452 ft | 511 kts | 360° |
| 2026-02-17 14:29 | 37.03193 | 140.00222 | 33682 ft | 513 kts | 360° |
| 2026-02-17 14:29 | 37.06690 | 140.01120 | 34033 ft | 513 kts | 360° |
| 2026-02-17 14:29 | 37.10189 | 140.02025 | 34339 ft | 514 kts | 360° |
| 2026-02-17 14:29 | 37.13692 | 140.02932 | 34618 ft | 513 kts | 360° |
| 2026-02-17 14:30 | 37.17189 | 140.03834 | 34915 ft | 513 kts | 360° |
| 2026-02-17 14:30 | 37.20691 | 140.04739 | 35203 ft | 513 kts | 360° |
| 2026-02-17 14:31 | 37.31176 | 140.07458 | 36114 ft | 512 kts | 359° |
| 2026-02-17 14:31 | 37.34666 | 140.08364 | 36436 ft | 512 kts | 359° |
| 2026-02-17 14:31 | 37.38148 | 140.09269 | 36763 ft | 511 kts | 359° |
| 2026-02-17 14:31 | 37.41632 | 140.10175 | 37075 ft | 511 kts | 359° |
| 2026-02-17 14:32 | 37.45111 | 140.11081 | 37379 ft | 511 kts | 359° |
| 2026-02-17 14:32 | 37.48598 | 140.11990 | 37683 ft | 511 kts | 359° |
| 2026-02-17 14:32 | 37.52081 | 140.12899 | 37971 ft | 511 kts | 359° |
| 2026-02-17 14:32 | 37.55565 | 140.13808 | 38261 ft | 511 kts | 359° |
| 2026-02-17 14:33 | 37.59042 | 140.14716 | 38588 ft | 510 kts | 359° |
| 2026-02-17 14:33 | 37.65987 | 140.16533 | 39126 ft | 510 kts | 359° |
| 2026-02-17 14:33 | 37.69480 | 140.17443 | 39145 ft | 514 kts | 359° |
| 2026-02-17 14:34 | 37.76447 | 140.19274 | 39155 ft | 516 kts | 359° |
| 2026-02-17 14:35 | 37.87156 | 140.22081 | 39162 ft | 531 kts | 359° |
| 2026-02-17 14:35 | 37.94436 | 140.24007 | 39161 ft | 535 kts | 360° |
| 2026-02-17 14:36 | 38.01720 | 140.25927 | 39165 ft | 535 kts | 360° |
| 2026-02-17 14:36 | 38.09005 | 140.27856 | 39161 ft | 534 kts | 360° |
| 2026-02-17 14:37 | 38.16287 | 140.29785 | 39156 ft | 534 kts | 360° |
| 2026-02-17 14:37 | 38.23505 | 140.31703 | 39160 ft | 533 kts | 0° |
| 2026-02-17 14:38 | 38.30771 | 140.33637 | 39164 ft | 533 kts | 0° |
| 2026-02-17 14:38 | 38.38057 | 140.35576 | 39161 ft | 531 kts | 359° |
| 2026-02-17 14:39 | 38.48913 | 140.37255 | 39164 ft | 524 kts | 355° |
| 2026-02-17 14:39 | 38.56103 | 140.38297 | 39163 ft | 524 kts | 355° |
| 2026-02-17 14:40 | 38.63348 | 140.39354 | 39161 ft | 524 kts | 355° |
| 2026-02-17 14:41 | 38.74229 | 140.40942 | 39162 ft | 524 kts | 355° |
| 2026-02-17 14:41 | 38.80265 | 140.41827 | 39150 ft | 525 kts | 355° |
| 2026-02-17 14:42 | 38.88730 | 140.43069 | 39159 ft | 524 kts | 355° |
| 2026-02-17 14:42 | 38.94751 | 140.43954 | 39165 ft | 523 kts | 355° |